Time;durP1;ratioP1;P1;durP2;ratioP2;P2;SDS_P1;SDS_P2;PMS_P1;PMS_P2;Temp;Humidity;BMP_temperature;BMP_pressure;BME280_temperature;BME280_humidity;BME280_pressure;Samples;Min_cycle;Max_cycle;Signal;HPM_P1;HPM_P2
2022/11/18 00:02:17;;;;;;;23.23;11.77;;;10.70;99.90;;;10.69;74.87;93950.69;5007127;28;20560;-55
2022/11/18 00:04:44;;;;;;;18.23;11.90;;;10.70;99.90;;;10.66;75.30;93953.63;5000533;28;20528;-54
2022/11/18 00:07:11;;;;;;;16.77;11.70;;;10.60;99.90;;;10.63;75.09;93948.69;5006633;28;20486;-55
2022/11/18 00:09:38;;;;;;;16.33;11.57;;;10.60;99.90;;;10.59;74.97;93945.56;5002063;28;20978;-55
2022/11/18 00:14:47;;;;;;;22.93;13.00;;;10.60;99.90;;;10.56;75.47;93947.69;4964187;28;21029;-54
2022/11/18 00:17:15;;;;;;;23.70;13.13;;;10.50;99.90;;;10.54;75.43;93954.94;5005380;28;20458;-53
2022/11/18 00:19:43;;;;;;;24.83;13.20;;;10.50;99.90;;;10.51;75.65;93953.44;5007191;28;20477;-54
2022/11/18 00:22:13;;;;;;;20.20;12.77;;;10.50;99.90;;;10.50;75.51;93958.88;5000111;28;20463;-54
2022/11/18 00:24:40;;;;;;;24.20;12.27;;;10.50;99.90;;;10.49;75.32;93958.06;5000024;28;20489;-55
2022/11/18 00:27:08;;;;;;;16.50;11.60;;;10.40;99.90;;;10.48;75.13;93960.84;5002766;28;20470;-55
2022/11/18 00:29:36;;;;;;;21.03;12.70;;;10.40;99.90;;;10.43;75.30;93956.06;5002084;28;20862;-54
2022/11/18 00:32:04;;;;;;;24.47;12.90;;;10.40;99.90;;;10.43;75.16;93950.00;5005821;28;20970;-55
2022/11/18 00:34:32;;;;;;;27.70;17.90;;;10.40;99.90;;;10.39;75.12;93952.94;5006514;28;20524;-53
2022/11/18 00:37:00;;;;;;;23.90;15.63;;;10.40;99.90;;;10.34;75.17;93949.16;5003692;28;20462;-56
2022/11/18 00:39:27;;;;;;;23.43;13.80;;;10.30;99.90;;;10.32;75.10;93959.78;5006143;28;20506;-54
2022/11/18 00:44:41;;;;;;;19.83;13.40;;;10.30;99.90;;;10.25;74.92;93943.00;4986652;28;20477;-55
2022/11/18 00:47:08;;;;;;;19.80;13.17;;;10.30;99.90;;;10.22;74.96;93945.97;5004739;28;20477;-56
2022/11/18 00:49:37;;;;;;;16.33;12.57;;;10.20;99.90;;;10.19;74.97;93944.50;5002731;28;20533;-55
2022/11/18 00:52:05;;;;;;;21.67;13.60;;;10.20;99.90;;;10.16;75.00;93951.84;4995416;28;20556;-55
2022/11/18 00:54:32;;;;;;;28.20;13.30;;;10.20;99.90;;;10.12;74.97;93948.72;5005986;28;20831;-52
2022/11/18 00:56:59;;;;;;;27.57;15.93;;;10.10;99.90;;;10.11;75.15;93954.16;4999444;28;20462;-53
2022/11/18 00:59:27;;;;;;;25.83;13.53;;;10.10;99.90;;;10.08;75.09;93951.84;5006530;28;20477;-55
2022/11/18 01:01:55;;;;;;;22.40;14.17;;;10.10;99.90;;;10.03;74.80;93945.25;5006821;28;20856;-54
2022/11/18 01:04:22;;;;;;;18.07;12.57;;;10.00;99.90;;;10.01;75.16;93943.78;5006093;28;20891;-54
2022/11/18 01:06:51;;;;;;;19.27;13.87;;;10.00;99.90;;;9.99;75.28;93946.56;5005032;28;20458;-55
2022/11/18 01:09:18;;;;;;;20.00;12.33;;;10.00;99.90;;;9.97;75.23;93945.88;4999588;28;20496;-54
2022/11/18 01:14:30;;;;;;;16.90;12.73;;;10.00;99.90;;;9.96;75.25;93949.50;5000118;28;21063;-55
2022/11/18 01:16:57;;;;;;;17.87;11.70;;;9.90;99.90;;;9.95;74.94;93944.41;5000851;28;20460;-54
2022/11/18 01:19:25;;;;;;;20.57;11.13;;;9.90;99.90;;;9.94;74.98;93951.44;4995142;28;20485;-54
2022/11/18 01:21:55;;;;;;;20.13;12.20;;;9.90;99.90;;;9.92;74.92;93947.34;4998025;28;20469;-53
2022/11/18 01:24:22;;;;;;;15.20;10.87;;;9.90;99.90;;;9.90;74.78;93947.53;5002287;28;20998;-54
2022/11/18 01:26:49;;;;;;;13.30;10.50;;;9.90;99.90;;;9.87;74.83;93955.72;4999651;28;20485;-55
2022/11/18 01:29:17;;;;;;;19.70;11.87;;;9.90;99.90;;;9.82;74.66;93952.72;5005840;28;20788;-56
2022/11/18 01:31:44;;;;;;;18.57;11.70;;;9.80;99.90;;;9.78;74.60;93951.41;4999864;28;20490;-56
2022/11/18 01:34:12;;;;;;;20.93;13.77;;;9.80;99.90;;;9.75;74.78;93954.34;5001093;28;20481;-52
2022/11/18 01:36:39;;;;;;;27.93;14.17;;;9.80;99.90;;;9.73;74.87;93959.75;5000987;28;20469;-54
2022/11/18 01:39:07;;;;;;;24.47;14.47;;;9.70;99.90;;;9.69;74.73;93963.66;5005904;28;20970;-55
2022/11/18 01:41:35;;;;;;;22.40;13.90;;;9.70;99.90;;;9.66;74.85;93953.47;5003634;28;20544;-53
2022/11/18 01:44:04;;;;;;;21.33;12.80;;;9.70;99.90;;;9.62;74.62;93952.97;5005379;28;20817;-55
2022/11/18 01:46:32;;;;;;;15.97;10.83;;;9.70;99.90;;;9.60;74.62;93943.59;4997877;28;20464;-53
2022/11/18 01:49:02;;;;;;;14.07;9.83;;;9.60;99.90;;;9.57;74.71;93955.22;5003129;28;20473;-54
2022/11/18 01:51:32;;;;;;;15.97;10.43;;;9.60;99.90;;;9.56;74.55;93947.50;5002605;28;20993;-53
2022/11/18 01:54:02;;;;;;;16.37;10.33;;;9.60;99.90;;;9.54;74.77;93950.28;5002928;28;20511;-56
2022/11/18 01:56:34;;;;;;;15.67;9.70;;;9.60;99.90;;;9.53;74.79;93943.41;4996446;28;20453;-55
2022/11/18 01:59:04;;;;;;;13.17;10.07;;;9.60;99.90;;;9.52;74.87;93949.63;5002022;28;20504;-58
2022/11/18 02:01:31;;;;;;;10.50;8.10;;;9.50;99.90;;;9.51;74.86;93946.19;5005145;28;20942;-54
2022/11/18 02:03:58;;;;;;;13.40;9.73;;;9.50;99.90;;;9.52;75.31;93947.00;5000219;28;20457;-54
2022/11/18 02:06:26;;;;;;;12.30;8.77;;;9.50;99.90;;;9.53;75.30;93951.28;5003524;28;20551;-54
2022/11/18 02:08:53;;;;;;;14.60;10.43;;;9.50;99.90;;;9.48;75.28;93943.03;5005307;28;20457;-56
2022/11/18 02:14:07;;;;;;;20.13;12.50;;;9.50;99.90;;;9.57;75.83;93949.97;4997485;28;20989;-54
2022/11/18 02:16:51;;;;;;;16.60;12.17;;;9.60;99.90;;;9.60;75.92;93948.84;5008014;28;20596;-54
2022/11/18 02:19:38;;;;;;;24.73;13.53;;;9.60;99.90;;;9.63;76.11;93943.28;5009425;28;20484;-54
2022/11/18 02:22:15;;;;;;;25.63;14.63;;;9.60;99.90;;;9.67;76.02;93945.44;5005988;28;20547;-54
2022/11/18 02:24:49;;;;;;;20.63;13.13;;;9.70;99.90;;;9.71;76.09;93939.88;4998435;28;20477;-55
2022/11/18 02:27:59;;;;;;;20.50;13.70;;;9.70;99.90;;;9.75;76.40;93941.22;5008908;28;20756;-54
2022/11/18 02:30:27;;;;;;;27.80;14.87;;;9.70;99.90;;;9.79;76.04;93932.03;5003286;28;20529;-54
2022/11/18 02:32:57;;;;;;;26.10;14.50;;;9.80;99.90;;;9.80;76.65;93936.31;5003782;28;20497;-54
2022/11/18 02:35:28;;;;;;;26.57;16.10;;;9.80;99.90;;;9.84;76.21;93930.59;5002667;28;20897;-54
2022/11/18 02:37:57;;;;;;;23.50;14.70;;;9.80;99.90;;;9.85;76.27;93931.38;5008825;28;20453;-56
2022/11/18 02:40:26;;;;;;;25.03;14.40;;;9.80;99.90;;;9.87;76.24;93934.69;5005836;28;20485;-54
2022/11/18 02:42:56;;;;;;;25.13;14.90;;;9.90;99.90;;;9.87;76.04;93930.25;5008163;28;20458;-55
2022/11/18 02:45:23;;;;;;;26.37;14.60;;;9.90;99.90;;;9.87;76.09;93935.50;4999484;28;21021;-54
2022/11/18 02:47:52;;;;;;;25.97;15.20;;;9.90;99.90;;;9.87;76.16;93930.25;5000036;28;20458;-55
2022/11/18 02:50:23;;;;;;;23.40;14.83;;;9.90;99.90;;;9.87;75.96;93929.44;5006882;28;20478;-54
2022/11/18 02:52:53;;;;;;;28.17;15.80;;;9.90;99.90;;;9.86;76.06;93938.31;5005596;28;20481;-54
2022/11/18 02:55:20;;;;;;;25.27;14.90;;;9.90;99.90;;;9.86;75.95;93943.56;5005034;28;20485;-54
2022/11/18 02:57:48;;;;;;;23.90;14.60;;;9.80;99.90;;;9.86;75.84;93938.31;5008589;28;20507;-53
2022/11/18 03:00:17;;;;;;;29.37;15.90;;;9.90;99.90;;;9.87;76.07;93942.59;5004765;28;20485;-52
2022/11/18 03:02:45;;;;;;;36.17;17.80;;;9.90;99.90;;;9.87;76.11;93953.91;5006615;28;20465;-55
2022/11/18 03:05:19;;;;;;;33.83;16.10;;;9.90;99.90;;;9.87;76.26;93946.03;5005010;28;20481;-55
2022/11/18 03:07:50;;;;;;;27.50;14.37;;;9.90;99.90;;;9.87;76.40;93945.22;5008281;28;20450;-53
2022/11/18 03:10:17;;;;;;;23.70;13.90;;;9.90;99.90;;;9.87;76.13;93947.84;5004452;28;20814;-56
2022/11/18 03:12:48;;;;;;;17.87;12.07;;;9.90;99.90;;;9.86;75.86;93949.63;4999775;28;20504;-52
2022/11/18 03:15:20;;;;;;;21.67;13.53;;;9.90;99.90;;;9.86;75.67;93943.56;5004757;28;21022;-55
2022/11/18 03:17:53;;;;;;;22.20;14.00;;;9.80;99.90;;;9.83;75.77;93941.25;5002326;28;20545;-54
2022/11/18 03:20:23;;;;;;;19.30;13.50;;;9.80;99.90;;;9.82;75.72;93927.28;5007183;28;20523;-54
2022/11/18 03:22:54;;;;;;;26.30;14.70;;;9.80;99.90;;;9.82;75.53;93936.97;5000387;28;20458;-55
2022/11/18 03:25:23;;;;;;;22.77;13.20;;;9.80;99.90;;;9.81;75.60;93935.34;5002487;28;20970;-53
2022/11/18 03:27:54;;;;;;;23.73;14.60;;;9.80;99.90;;;9.81;75.72;93940.59;4996632;28;20468;-54
2022/11/18 03:30:22;;;;;;;18.10;12.50;;;9.80;99.90;;;9.80;75.68;93941.56;5000766;28;20481;-54
2022/11/18 03:32:52;;;;;;;23.90;13.43;;;9.80;99.90;;;9.80;75.89;93944.19;5006989;28;20493;-55
2022/11/18 03:35:23;;;;;;;25.70;13.33;;;9.80;99.90;;;9.79;75.68;93942.53;5000032;28;20482;-55
2022/11/18 03:37:52;;;;;;;26.10;15.27;;;9.80;99.90;;;9.78;75.74;93939.09;5005729;28;20783;-56
2022/11/18 03:40:22;;;;;;;25.77;15.77;;;9.80;99.90;;;9.78;75.69;93933.03;5003264;28;20474;-55
2022/11/18 03:42:51;;;;;;;31.10;16.03;;;9.80;99.90;;;9.76;75.28;93929.72;5004415;28;20540;-55
2022/11/18 03:45:22;;;;;;;27.40;15.70;;;9.80;99.90;;;9.73;75.63;93930.03;5006233;28;20516;-56
2022/11/18 03:47:52;;;;;;;28.13;15.40;;;9.70;99.90;;;9.69;75.50;93922.47;5001375;28;20550;-54
2022/11/18 03:50:23;;;;;;;31.43;16.40;;;9.70;99.90;;;9.67;75.78;93919.19;5005092;28;21021;-55
2022/11/18 03:52:50;;;;;;;37.60;16.00;;;9.70;99.90;;;9.64;75.68;93914.25;5007389;28;20485;-54
2022/11/18 03:55:20;;;;;;;44.97;16.33;;;9.70;99.90;;;9.63;75.77;93917.84;4998869;28;20482;-53
2022/11/18 03:57:52;;;;;;;47.17;18.73;;;9.70;99.90;;;9.59;76.01;93919.16;5007435;28;20516;-54
2022/11/18 04:00:20;;;;;;;61.13;19.90;;;9.60;99.90;;;9.56;76.38;93911.59;5001520;28;20505;-56
2022/11/18 04:02:48;;;;;;;174.27;21.33;;;9.60;99.90;;;9.52;76.49;93921.56;5005367;28;20887;-55
2022/11/18 04:05:15;;;;;;;49.87;20.10;;;9.50;99.90;;;9.49;76.75;93916.63;5007345;28;20470;-56
2022/11/18 04:07:52;;;;;;;31.37;17.43;;;9.50;99.90;;;9.48;76.66;93919.41;5000005;28;20473;-54
2022/11/18 04:10:22;;;;;;;58.50;19.20;;;9.50;99.90;;;9.48;76.96;93922.03;5000983;28;20469;-54
2022/11/18 04:12:52;;;;;;;38.80;19.07;;;9.50;99.90;;;9.49;77.17;93921.88;4999325;28;20485;-54
2022/11/18 04:15:19;;;;;;;32.07;16.73;;;9.50;99.90;;;9.51;76.97;93919.09;5003328;28;20500;-55
2022/11/18 04:17:47;;;;;;;34.30;16.23;;;9.50;99.90;;;9.53;77.42;93919.78;4997409;28;20942;-55
2022/11/18 04:20:15;;;;;;;27.80;14.87;;;9.50;99.90;;;9.54;76.73;93929.28;5006843;28;20474;-55
2022/11/18 04:22:44;;;;;;;29.70;16.40;;;9.50;99.90;;;9.55;76.87;93927.50;5005260;28;20458;-57
2022/11/18 04:25:11;;;;;;;30.93;16.73;;;9.50;99.90;;;9.56;76.87;93937.00;5005417;28;20481;-55
2022/11/18 04:27:38;;;;;;;28.80;16.10;;;9.60;99.90;;;9.56;76.99;93931.75;5006527;28;20453;-55
2022/11/18 04:30:07;;;;;;;29.83;16.90;;;9.60;99.90;;;9.56;76.52;93935.22;5003222;28;20527;-56
2022/11/18 04:32:34;;;;;;;39.37;17.23;;;9.60;99.90;;;9.56;76.68;93934.38;5001105;28;21009;-55
2022/11/18 04:35:02;;;;;;;31.40;15.20;;;9.60;99.90;;;9.56;76.54;93943.09;5002928;28;20588;-56
2022/11/18 04:37:29;;;;;;;94.00;16.10;;;9.60;99.90;;;9.54;76.58;93942.41;4993215;28;20462;-54
2022/11/18 04:39:58;;;;;;;64.07;17.00;;;9.60;99.90;;;9.51;76.75;93943.56;5005765;28;20465;-57
2022/11/18 04:42:25;;;;;;;92.63;19.40;;;9.60;99.90;;;9.50;76.48;93955.03;4998812;28;20566;-53
2022/11/18 04:44:52;;;;;;;49.90;19.67;;;9.50;99.90;;;9.47;76.40;93950.09;4997013;28;20477;-55
2022/11/18 04:47:20;;;;;;;33.60;19.43;;;9.50;99.90;;;9.43;76.72;93958.44;4998671;28;20465;-52
2022/11/18 04:49:47;;;;;;;102.50;21.33;;;9.50;99.90;;;9.41;76.81;93940.22;5000978;28;20494;-54
2022/11/18 04:52:15;;;;;;;119.33;19.77;;;9.40;99.90;;;9.37;76.42;93951.19;5005169;28;20830;-54
2022/11/18 04:54:42;;;;;;;105.27;20.57;;;9.40;99.90;;;9.30;76.52;93954.44;5007613;28;20564;-55
2022/11/18 04:57:11;;;;;;;100.93;20.67;;;9.30;99.90;;;9.26;76.79;93958.34;5002602;28;20803;-56
2022/11/18 04:59:38;;;;;;;63.07;20.70;;;9.30;99.90;;;9.23;76.75;93956.00;5002238;28;20485;-55
2022/11/18 05:02:05;;;;;;;59.47;20.50;;;9.20;99.90;;;9.21;76.91;93957.16;5006049;28;20458;-56
2022/11/18 05:04:34;;;;;;;104.30;22.17;;;9.20;99.90;;;9.18;77.61;93950.41;5006554;28;20481;-55
2022/11/18 05:07:03;;;;;;;36.33;18.27;;;9.20;99.90;;;9.19;77.19;93949.44;5002755;28;20450;-56
2022/11/18 05:09:30;;;;;;;103.27;23.03;;;9.20;99.90;;;9.20;77.31;93950.25;5006252;28;20469;-56
2022/11/18 05:14:44;;;;;;;42.73;20.60;;;9.20;99.90;;;9.20;77.35;93948.47;5004626;28;20492;-54
2022/11/18 05:17:11;;;;;;;35.73;20.37;;;9.20;99.90;;;9.23;77.70;93952.56;5003701;28;20480;-55
2022/11/18 05:19:39;;;;;;;55.23;24.13;;;9.20;99.90;;;9.26;77.25;93957.50;5003521;28;20473;-57
2022/11/18 05:22:06;;;;;;;42.53;21.70;;;9.20;99.90;;;9.27;77.52;93952.13;5005715;28;20544;-55
2022/11/18 05:24:33;;;;;;;42.30;22.20;;;9.30;99.90;;;9.27;77.35;93952.13;5005246;28;20534;-54
2022/11/18 05:27:01;;;;;;;45.73;22.77;;;9.30;99.90;;;9.30;77.58;93954.44;5001397;28;20876;-53
2022/11/18 05:29:28;;;;;;;43.53;22.20;;;9.30;99.90;;;9.35;77.81;93961.03;5005447;28;20488;-56
2022/11/18 05:31:57;;;;;;;46.27;23.10;;;9.30;99.90;;;9.39;77.87;93957.09;5005044;28;20464;-54
2022/11/18 05:34:24;;;;;;;50.00;22.90;;;9.40;99.90;;;9.42;77.85;93954.16;5002921;28;20520;-54
2022/11/18 05:36:51;;;;;;;113.97;24.73;;;9.40;99.90;;;9.45;77.79;93957.31;5005718;28;20454;-54
2022/11/18 05:39:19;;;;;;;60.97;25.73;;;9.40;99.90;;;9.47;77.75;93954.53;5005531;28;20496;-56
2022/11/18 05:44:30;;;;;;;74.87;24.90;;;9.50;99.90;;;9.51;77.90;93961.09;5000973;28;20816;-55
2022/11/18 05:46:59;;;;;;;81.17;25.53;;;9.50;99.90;;;9.51;78.22;93958.47;5001980;28;20472;-54
2022/11/18 05:49:26;;;;;;;62.20;29.20;;;9.50;99.90;;;9.53;78.22;93951.28;5001923;28;20465;-55
2022/11/18 05:51:53;;;;;;;75.33;29.50;;;9.50;99.90;;;9.55;78.37;93957.19;5004852;28;20460;-54
2022/11/18 05:54:21;;;;;;;57.33;27.00;;;9.60;99.90;;;9.58;78.07;93966.56;5005017;28;20567;-55
2022/11/18 05:56:48;;;;;;;54.73;26.87;;;9.60;99.90;;;9.60;78.31;93954.91;5004486;28;20527;-55
2022/11/18 05:59:16;;;;;;;59.07;27.00;;;9.60;99.90;;;9.64;78.46;93956.25;5003275;28;20561;-54
2022/11/18 06:01:46;;;;;;;208.43;30.47;;;9.60;99.90;;;9.67;78.38;93960.38;5004260;28;20776;-56
2022/11/18 06:04:18;;;;;;;63.67;29.33;;;9.70;99.90;;;9.68;78.33;93962.84;5003253;28;20465;-54
2022/11/18 06:06:46;;;;;;;53.57;26.93;;;9.70;99.90;;;9.71;78.46;93955.63;5005897;28;20469;-53
2022/11/18 06:09:13;;;;;;;71.07;22.67;;;9.70;99.90;;;9.74;78.51;93955.31;5005426;28;21005;-55
2022/11/18 06:11:42;;;;;;;53.60;23.57;;;9.70;99.90;;;9.76;78.30;93954.19;5004995;28;20456;-55
2022/11/18 06:14:11;;;;;;;48.60;23.10;;;9.80;99.90;;;9.79;78.27;93956.50;5005530;28;21166;-56
2022/11/18 06:16:39;;;;;;;105.23;24.33;;;9.80;99.90;;;9.80;77.80;93958.13;5004376;28;20505;-54
2022/11/18 06:19:06;;;;;;;120.40;25.77;;;9.80;99.90;;;9.79;77.63;93959.13;5005458;28;20806;-57
2022/11/18 06:21:35;;;;;;;64.93;23.80;;;9.80;99.90;;;9.73;77.58;93953.66;5005149;28;20465;-55
2022/11/18 06:24:02;;;;;;;53.90;24.43;;;9.80;99.90;;;9.71;78.34;93950.38;5004959;28;20445;-56
2022/11/18 06:26:29;;;;;;;78.17;24.90;;;9.70;99.90;;;9.72;78.08;93946.78;5004439;28;20454;-54
2022/11/18 06:28:57;;;;;;;117.13;24.50;;;9.70;99.90;;;9.72;77.67;93949.41;5005323;28;20457;-56
2022/11/18 06:31:24;;;;;;;88.37;24.90;;;9.70;99.90;;;9.72;78.30;93959.91;5005444;28;20461;-55
2022/11/18 06:33:51;;;;;;;53.97;24.07;;;9.70;99.90;;;9.73;78.46;93954.50;5005146;28;20493;-56
2022/11/18 06:36:18;;;;;;;176.57;25.40;;;9.70;99.90;;;9.74;78.21;93940.38;5005091;28;20520;-55
2022/11/18 06:38:47;;;;;;;111.27;24.10;;;9.70;99.90;;;9.75;78.16;93949.09;5004916;28;20461;-55
2022/11/18 06:41:14;;;;;;;90.00;22.80;;;9.70;99.90;;;9.73;78.90;93946.63;5004992;28;21041;-54
2022/11/18 06:43:42;;;;;;;136.90;24.57;;;9.70;99.90;;;9.73;78.53;93945.78;5001024;28;20563;-57
2022/11/18 06:48:56;;;;;;;152.10;25.23;;;9.70;99.90;;;9.79;79.48;93940.75;4999333;28;21004;-55
2022/11/18 06:51:24;;;;;;;51.67;24.30;;;9.80;99.90;;;9.82;79.13;93952.72;5004957;28;20549;-52
2022/11/18 06:53:52;;;;;;;51.20;24.77;;;9.80;99.90;;;9.85;79.26;93949.78;5005319;28;20910;-55
2022/11/18 06:56:20;;;;;;;57.00;25.40;;;9.80;99.90;;;9.88;78.97;93954.72;5005283;28;20465;-54
2022/11/18 06:58:48;;;;;;;87.00;22.87;;;9.90;99.90;;;9.92;78.65;93947.34;5004257;28;20456;-53
2022/11/18 07:01:16;;;;;;;74.43;24.00;;;9.90;99.90;;;9.92;79.37;93948.16;5005487;28;20888;-56
2022/11/18 07:03:45;;;;;;;52.67;21.83;;;9.90;99.90;;;9.95;78.85;93949.66;5003131;28;20891;-55
2022/11/18 07:06:14;;;;;;;46.17;20.93;;;9.90;99.90;;;9.98;78.72;93947.53;5008790;28;21073;-55
2022/11/18 07:08:41;;;;;;;65.67;21.00;;;10.00;99.90;;;10.00;78.95;93945.56;5008433;28;20841;-56
2022/11/18 07:11:12;;;;;;;94.83;22.90;;;10.00;99.90;;;10.02;78.92;93948.88;5008392;28;20929;-56
2022/11/18 07:13:39;;;;;;;89.43;21.20;;;10.00;99.90;;;10.05;78.63;93947.72;5008560;28;20477;-57
2022/11/18 07:16:09;;;;;;;53.13;19.90;;;10.00;99.90;;;10.07;78.40;93945.78;5008796;28;20484;-56
2022/11/18 07:18:37;;;;;;;39.03;20.70;;;10.10;99.90;;;10.10;78.35;93929.69;5001151;28;20889;-53
2022/11/18 07:21:05;;;;;;;56.67;21.33;;;10.10;99.90;;;10.13;78.59;93923.28;5008386;28;20473;-56
2022/11/18 07:23:33;;;;;;;73.17;21.33;;;10.10;99.90;;;10.16;78.06;93928.22;5008401;28;20557;-55
2022/11/18 07:26:00;;;;;;;84.93;21.60;;;10.10;99.90;;;10.15;78.10;93931.84;5007967;28;20480;-55
2022/11/18 07:28:29;;;;;;;77.43;23.00;;;10.10;99.90;;;10.13;78.39;93926.75;5007758;28;20465;-53
2022/11/18 07:31:02;;;;;;;137.77;23.10;;;10.20;99.90;;;10.13;78.30;93920.63;5007577;28;20477;-56
2022/11/18 07:33:29;;;;;;;68.23;22.07;;;10.20;99.90;;;10.15;78.88;93926.59;5005801;28;20489;-55
2022/11/18 07:36:00;;;;;;;67.63;22.93;;;10.20;99.90;;;10.16;78.80;93922.94;5007861;28;20542;-55
2022/11/18 07:38:27;;;;;;;71.33;24.60;;;10.20;99.90;;;10.19;78.29;93917.38;5007775;28;20523;-56
2022/11/18 07:40:54;;;;;;;61.40;24.50;;;10.20;99.90;;;10.21;78.53;93932.00;5008023;28;20611;-54
2022/11/18 07:43:22;;;;;;;48.70;23.07;;;10.20;99.90;;;10.26;78.57;93931.53;5005099;28;20987;-54
2022/11/18 07:45:50;;;;;;;44.63;24.00;;;10.20;99.90;;;10.32;78.71;93937.94;5007617;28;21074;-54
2022/11/18 07:48:18;;;;;;;52.03;24.80;;;10.30;99.90;;;10.37;78.64;93946.19;5004416;28;21010;-56
2022/11/18 07:50:45;;;;;;;55.43;27.07;;;10.30;99.90;;;10.40;78.29;93940.63;5007824;28;20461;-54
2022/11/18 07:53:12;;;;;;;69.87;26.53;;;10.40;99.90;;;10.39;77.85;93942.44;5007767;28;20497;-53
2022/11/18 07:55:40;;;;;;;68.53;29.73;;;10.40;99.90;;;10.38;78.08;93938.16;5007338;28;20543;-59
2022/11/18 07:58:07;;;;;;;48.53;26.60;;;10.40;99.90;;;10.36;78.15;93940.13;5007037;28;20979;-54
2022/11/18 08:00:35;;;;;;;49.23;25.60;;;10.30;99.90;;;10.38;78.43;93953.91;5007213;28;20484;-54
2022/11/18 08:03:03;;;;;;;62.53;25.93;;;10.30;99.90;;;10.39;78.21;93950.31;5007572;28;20485;-55
2022/11/18 08:05:31;;;;;;;78.90;29.57;;;10.40;99.90;;;10.46;78.42;93947.03;5007238;28;20474;-54
2022/11/18 08:07:58;;;;;;;61.37;27.53;;;10.40;99.90;;;10.51;78.34;93948.19;5007696;28;20480;-56
2022/11/18 08:10:25;;;;;;;59.87;25.80;;;10.50;99.90;;;10.58;78.25;93953.59;5006859;28;20471;-54
2022/11/18 08:12:52;;;;;;;55.50;25.97;;;10.50;99.90;;;10.63;77.94;93958.38;5007129;28;20568;-54
2022/11/18 08:15:20;;;;;;;59.37;25.73;;;10.60;99.90;;;10.64;77.65;93955.59;5006480;28;20488;-54
2022/11/18 08:17:47;;;;;;;49.90;24.70;;;10.60;99.90;;;10.67;77.55;93939.47;4999981;28;20462;-56
2022/11/18 08:20:16;;;;;;;51.43;24.23;;;10.60;99.90;;;10.71;77.58;93938.19;5006803;28;21014;-57
2022/11/18 08:22:44;;;;;;;54.43;26.07;;;10.70;99.90;;;10.74;77.51;93944.94;5006889;28;20458;-54
2022/11/18 08:25:11;;;;;;;63.70;25.33;;;10.70;99.90;;;10.75;77.11;93934.25;5006168;28;20527;-55
2022/11/18 08:27:38;;;;;;;51.50;27.23;;;10.70;99.90;;;10.74;77.07;93922.06;5006340;28;21087;-55
2022/11/18 08:30:07;;;;;;;61.17;27.70;;;10.70;99.90;;;10.79;77.33;93933.91;5007075;28;20854;-55
2022/11/18 08:32:35;;;;;;;73.70;29.80;;;10.70;99.90;;;10.82;77.47;93928.34;5002533;28;20446;-55
2022/11/18 08:35:02;;;;;;;90.03;33.37;;;10.80;99.90;;;10.85;77.44;93922.75;5006492;28;20513;-55
2022/11/18 08:37:31;;;;;;;75.97;31.40;;;10.80;99.90;;;10.88;77.51;93915.34;5006888;28;20453;-56
2022/11/18 08:39:58;;;;;;;64.33;27.23;;;10.80;99.90;;;10.88;76.97;93906.63;5006955;28;20481;-54
2022/11/18 08:42:25;;;;;;;106.67;25.90;;;10.80;99.90;;;10.88;77.23;93912.69;5006697;28;20453;-54
2022/11/18 08:44:52;;;;;;;78.93;29.23;;;10.80;99.90;;;10.88;77.19;93902.19;5006434;28;20477;-55
2022/11/18 08:47:20;;;;;;;62.80;28.03;;;10.90;99.90;;;10.89;77.75;93909.09;5006227;28;20453;-53
2022/11/18 08:49:47;;;;;;;69.77;28.73;;;10.80;99.90;;;10.93;77.39;93894.59;5003231;28;20469;-54
2022/11/18 08:52:14;;;;;;;58.97;26.27;;;10.90;99.90;;;11.01;77.87;93891.13;5006522;28;20453;-54
2022/11/18 08:54:43;;;;;;;96.27;28.37;;;11.00;99.90;;;11.06;77.02;93883.59;5006082;28;20862;-53
2022/11/18 08:57:10;;;;;;;92.00;29.93;;;11.00;99.90;;;11.07;77.08;93858.91;5006192;28;20492;-56
2022/11/18 08:59:37;;;;;;;62.20;29.30;;;11.00;99.90;;;11.08;77.12;93854.47;5006517;28;20473;-57
2022/11/18 09:02:05;;;;;;;85.40;32.93;;;11.10;99.90;;;11.16;77.36;93849.19;5006179;28;20469;-57
2022/11/18 09:04:32;;;;;;;58.97;27.40;;;11.10;99.90;;;11.35;77.78;93850.59;5005929;28;20843;-58
2022/11/18 09:06:59;;;;;;;74.23;27.93;;;11.30;99.90;;;11.53;77.56;93846.94;5002659;28;20449;-55
2022/11/18 09:09:26;;;;;;;62.20;30.57;;;11.40;99.90;;;11.62;77.24;93836.19;5005931;28;21018;-55
2022/11/18 09:11:55;;;;;;;62.57;28.60;;;11.60;99.90;;;11.71;76.93;93865.94;5005691;28;20465;-54
2022/11/18 09:14:22;;;;;;;64.87;30.00;;;11.60;99.90;;;11.82;77.33;93847.13;5005422;28;20585;-55
2022/11/18 09:16:50;;;;;;;78.93;30.47;;;11.70;99.90;;;11.98;76.44;93850.69;5004697;28;20461;-54
2022/11/18 09:19:17;;;;;;;61.73;28.37;;;11.90;99.90;;;12.09;76.51;93846.84;5004231;28;20484;-53
2022/11/18 09:21:44;;;;;;;59.87;29.17;;;12.00;99.90;;;12.17;75.87;93852.84;5005475;28;20460;-54
2022/11/18 09:24:12;;;;;;;60.97;27.40;;;12.10;99.90;;;12.27;76.10;93849.16;5005663;28;20469;-54
2022/11/18 09:26:39;;;;;;;52.97;25.57;;;12.20;99.90;;;12.52;75.81;93837.47;5005245;28;20450;-54
2022/11/18 09:29:10;;;;;;;56.50;27.30;;;12.40;99.90;;;12.95;75.40;93823.72;5005972;28;20471;-54
2022/11/18 09:31:37;;;;;;;60.60;26.90;;;12.70;99.90;;;13.47;74.43;93821.22;5004820;28;20627;-54
2022/11/18 09:34:05;;;;;;;57.60;28.40;;;13.20;99.90;;;14.09;73.43;93827.84;5005307;28;20950;-54
2022/11/18 09:36:32;;;;;;;64.03;29.90;;;13.70;99.90;;;14.77;69.96;93809.78;5003320;28;20537;-57
2022/11/18 09:39:00;;;;;;;67.87;29.87;;;14.30;99.90;;;15.41;70.28;93800.00;5001453;28;20462;-54
2022/11/18 09:41:44;;;;;;;70.10;31.77;;;15.00;99.90;;;16.20;68.34;93780.13;4998466;28;20530;-53
2022/11/18 09:44:26;;;;;;;64.57;30.23;;;15.70;99.90;;;16.96;66.23;93776.31;5001675;28;21073;-56
2022/11/18 09:47:04;;;;;;;59.20;30.97;;;16.40;99.90;;;17.53;64.69;93786.41;5001354;28;20846;-55
2022/11/18 09:49:35;;;;;;;90.10;36.07;;;17.00;99.90;;;18.01;63.73;93771.91;4999990;28;20907;-56
2022/11/18 09:52:03;;;;;;;68.83;33.33;;;17.50;99.90;;;18.36;62.60;93779.50;5005186;28;20992;-54
2022/11/18 09:54:32;;;;;;;69.60;35.33;;;17.90;99.90;;;18.70;61.54;93780.91;5005833;28;20501;-54
2022/11/18 09:56:59;;;;;;;55.47;33.97;;;18.30;99.90;;;19.14;60.62;93770.31;5005713;28;20449;-57
2022/11/18 09:59:30;;;;;;;48.23;28.37;;;18.70;99.90;;;19.61;59.46;93765.31;5005449;28;20480;-53
2022/11/18 10:02:23;;;;;;;61.20;32.63;;;19.10;99.30;;;20.13;57.62;93766.75;4998684;28;20453;-54
2022/11/18 10:04:50;;;;;;;81.57;37.93;;;19.60;98.10;;;20.60;57.57;93769.53;5003355;28;20609;-56
2022/11/18 10:07:25;;;;;;;70.30;37.50;;;20.00;97.50;;;21.04;55.60;93767.44;5005002;28;21126;-54
2022/11/18 10:09:53;;;;;;;73.60;36.27;;;20.50;96.00;;;21.45;54.36;93759.50;5002538;28;20853;-55
2022/11/18 10:12:25;;;;;;;74.17;36.00;;;20.90;94.60;;;21.77;53.95;93765.31;5003840;28;20461;-55
2022/11/18 10:15:06;;;;;;;58.53;33.43;;;21.30;94.10;;;22.11;52.91;93759.28;5005783;28;20520;-56
2022/11/18 10:17:44;;;;;;;57.33;34.40;;;21.60;93.00;;;22.34;50.56;93766.44;5003918;28;20458;-55
2022/11/18 10:20:37;;;;;;;59.13;32.87;;;21.90;90.50;;;22.58;49.24;93747.56;5000874;28;20501;-55
2022/11/18 10:23:08;;;;;;;55.47;32.30;;;22.10;88.40;;;22.67;48.85;93738.88;5000958;28;20894;-54
2022/11/18 10:25:36;;;;;;;61.17;31.97;;;22.20;83.40;;;22.58;50.45;93744.88;5005137;28;20847;-54
2022/11/18 10:28:22;;;;;;;62.07;30.93;;;22.20;88.50;;;22.53;49.48;93746.41;5005270;28;20581;-55
2022/11/18 10:30:51;;;;;;;55.33;31.37;;;22.20;86.30;;;22.63;50.32;93737.72;4998727;28;20477;-57
2022/11/18 10:33:27;;;;;;;67.87;33.70;;;22.30;86.40;;;22.62;49.62;93743.31;5005260;28;20461;-55
2022/11/18 10:36:18;;;;;;;86.30;31.23;;;22.30;85.50;;;22.61;49.68;93731.78;5001844;28;20578;-56
2022/11/18 10:38:45;;;;;;;86.60;30.70;;;22.30;84.40;;;22.67;49.86;93727.34;5006012;28;20445;-56
2022/11/18 10:41:14;;;;;;;68.63;28.40;;;22.40;85.10;;;22.73;49.29;93719.13;5008805;28;20453;-56